createdAt,value
2018-11-05T00:00:37.232Z,95.30
2018-11-05T00:03:44.970Z,94.80
2018-11-05T00:06:17.463Z,94.70
2018-11-05T00:08:52.196Z,95.00
2018-11-05T00:11:46.545Z,94.50
2018-11-05T00:14:19.941Z,94.40
2018-11-05T00:19:33.261Z,94.60
2018-11-05T00:22:37.776Z,94.60
2018-11-05T00:25:24.405Z,93.80
2018-11-05T00:31:40.504Z,93.60
2018-11-05T00:34:16.602Z,93.60
2018-11-05T00:37:40.085Z,93.90
2018-11-05T00:40:20.264Z,93.20
2018-11-05T00:42:48.550Z,93.50
2018-11-05T00:45:23.399Z,93.70
2018-11-05T00:47:58.099Z,93.90
2018-11-05T00:50:26.270Z,93.80
2018-11-05T00:52:56.758Z,93.70
2018-11-05T00:55:30.414Z,93.80
2018-11-05T00:57:58.655Z,94.10
2018-11-05T01:00:28.504Z,93.40
2018-11-05T01:03:21.500Z,93.40
2018-11-05T01:08:27.995Z,93.70
2018-11-05T01:10:59.154Z,94.00
2018-11-05T01:13:33.253Z,93.40
2018-11-05T01:16:13.222Z,93.40
2018-11-05T01:18:45.464Z,93.80
2018-11-05T01:21:18.779Z,93.20
2018-11-05T01:23:54.326Z,93.10
2018-11-05T01:29:14.660Z,93.10
2018-11-05T01:31:42.811Z,93.10
2018-11-05T01:34:11.024Z,93.30
2018-11-05T01:36:39.260Z,93.00
2018-11-05T01:39:09.048Z,93.40
2018-11-05T01:41:38.815Z,93.40
2018-11-05T01:44:07.492Z,92.30
2018-11-05T01:46:36.099Z,92.20
2018-11-05T01:49:04.724Z,91.80
2018-11-05T01:51:33.218Z,92.10
2018-11-05T01:54:01.388Z,92.20
2018-11-05T01:56:29.767Z,93.00
2018-11-05T01:58:57.998Z,92.70
2018-11-05T02:01:31.449Z,93.00
2018-11-05T02:04:00.956Z,92.70
2018-11-05T02:06:29.379Z,92.80
2018-11-05T02:08:58.064Z,92.80
2018-11-05T02:11:28.340Z,92.70
2018-11-05T02:13:59.789Z,92.50
2018-11-05T02:16:28.464Z,92.80
2018-11-05T02:19:00.231Z,92.70
2018-11-05T02:21:29.004Z,92.50
2018-11-05T02:23:58.018Z,92.40
2018-11-05T02:26:26.869Z,95.00
2018-11-05T02:28:55.583Z,92.50
2018-11-05T02:31:24.411Z,92.40
2018-11-05T02:33:53.436Z,92.30
2018-11-05T02:36:28.494Z,93.50
2018-11-05T02:39:00.656Z,92.20
2018-11-05T02:41:30.923Z,91.80
2018-11-05T02:44:03.412Z,91.80
2018-11-05T02:46:32.011Z,91.80
2018-11-05T02:49:00.423Z,92.10
2018-11-05T02:51:29.161Z,91.40
2018-11-05T02:53:57.683Z,91.40
2018-11-05T02:56:26.241Z,92.00
2018-11-05T02:58:54.762Z,91.90
2018-11-05T03:01:23.377Z,91.90
2018-11-05T03:03:55.300Z,91.70
2018-11-05T03:08:57.078Z,91.50
2018-11-05T03:11:34.240Z,91.30
2018-11-05T03:14:10.745Z,91.50
2018-11-05T03:16:49.673Z,91.20
2018-11-05T03:19:19.233Z,91.10
2018-11-05T03:21:50.082Z,91.10
2018-11-05T03:24:20.565Z,91.40
2018-11-05T03:26:55.081Z,91.30
2018-11-05T03:29:24.185Z,91.40
2018-11-05T03:34:31.914Z,91.50
2018-11-05T03:37:02.939Z,91.60
2018-11-05T03:41:04.142Z,91.60
2018-11-05T03:43:44.810Z,91.70
2018-11-05T03:46:19.191Z,91.90
2018-11-05T03:48:50.532Z,95.80
2018-11-05T03:53:51.515Z,92.10
2018-11-05T03:56:21.924Z,92.00
2018-11-05T04:01:23.288Z,99.90
2018-11-05T04:03:53.682Z,91.50
2018-11-05T04:06:28.924Z,91.60
2018-11-05T04:09:07.594Z,91.60
2018-11-05T04:11:43.454Z,91.60
2018-11-05T04:14:15.495Z,91.60
2018-11-05T04:16:46.326Z,91.50
2018-11-05T04:19:14.939Z,91.50
2018-11-05T04:21:57.732Z,91.60
2018-11-05T04:24:26.175Z,92.10
2018-11-05T04:26:54.506Z,92.40
2018-11-05T04:29:22.989Z,92.40
2018-11-05T04:31:51.219Z,92.40
2018-11-05T04:34:19.840Z,92.30
2018-11-05T04:36:51.689Z,92.30
2018-11-05T04:39:20.395Z,92.60
2018-11-05T04:41:48.870Z,92.60
2018-11-05T04:44:17.415Z,92.60
2018-11-05T04:46:45.719Z,92.60
2018-11-05T04:49:13.933Z,92.10
2018-11-05T04:51:42.815Z,92.10
2018-11-05T04:54:15.352Z,92.40
2018-11-05T04:56:46.334Z,92.40
2018-11-05T04:59:19.498Z,92.50
2018-11-05T05:01:49.999Z,92.60
2018-11-05T05:04:25.838Z,92.40
2018-11-05T05:06:56.866Z,92.30
2018-11-05T05:09:30.499Z,91.70
2018-11-05T05:12:01.560Z,92.00
2018-11-05T05:14:32.237Z,92.20
2018-11-05T05:19:33.127Z,92.10
2018-11-05T05:22:05.059Z,92.40
2018-11-05T05:24:40.306Z,92.20
2018-11-05T05:27:09.850Z,92.40
2018-11-05T05:29:39.518Z,93.00
2018-11-05T05:32:09.565Z,92.60
2018-11-05T05:34:41.037Z,92.40
2018-11-05T05:37:12.174Z,92.60
2018-11-05T05:39:48.519Z,92.60
2018-11-05T05:42:27.195Z,92.60
2018-11-05T05:44:56.202Z,97.80
2018-11-05T05:47:24.590Z,93.10
2018-11-05T05:52:32.458Z,92.70
2018-11-05T05:59:04.527Z,92.80
2018-11-05T06:01:33.553Z,92.70
2018-11-05T06:04:04.235Z,92.80
2018-11-05T06:06:35.750Z,92.80
2018-11-05T06:09:09.775Z,93.20
2018-11-05T06:11:38.847Z,93.10
2018-11-05T06:14:08.683Z,93.00
2018-11-05T06:16:39.057Z,92.20
2018-11-05T06:21:46.067Z,92.40
2018-11-05T06:24:15.554Z,92.50
2018-11-05T06:26:44.095Z,92.40
2018-11-05T06:29:12.709Z,92.30
2018-11-05T06:31:41.472Z,92.40
2018-11-05T06:34:10.437Z,92.60
2018-11-05T06:36:39.855Z,92.20
2018-11-05T06:39:10.686Z,92.30
2018-11-05T06:41:40.363Z,98.50
2018-11-05T06:44:09.249Z,92.30
2018-11-05T06:46:39.255Z,99.90
2018-11-05T06:49:10.124Z,92.30
2018-11-05T06:51:40.069Z,92.00
2018-11-05T06:54:11.186Z,92.30
2018-11-05T06:59:09.063Z,92.80
2018-11-05T07:01:39.951Z,92.90
2018-11-05T07:04:09.837Z,93.50
2018-11-05T07:06:38.702Z,93.60
2018-11-05T07:09:13.941Z,94.00
2018-11-05T07:11:44.120Z,94.50
2018-11-05T07:14:32.550Z,94.50
2018-11-05T07:17:06.523Z,95.10
2018-11-05T07:19:36.133Z,95.60
2018-11-05T07:22:07.949Z,96.00
2018-11-05T07:24:39.904Z,96.00
2018-11-05T07:27:08.593Z,96.20
2018-11-05T07:29:39.011Z,96.60
2018-11-05T07:32:07.298Z,96.70
2018-11-05T07:34:35.816Z,97.00
2018-11-05T07:37:04.234Z,95.40
2018-11-05T07:39:32.576Z,95.40
2018-11-05T07:42:00.861Z,95.40
2018-11-05T07:44:29.108Z,96.00
2018-11-05T07:46:57.443Z,95.30
2018-11-05T07:49:25.717Z,95.10
2018-11-05T07:51:53.983Z,95.40
2018-11-05T07:54:22.178Z,95.70
2018-11-05T07:56:50.510Z,95.70
2018-11-05T07:59:18.642Z,95.50
2018-11-05T08:01:47.140Z,95.30
2018-11-05T08:04:15.657Z,95.00
2018-11-05T08:06:44.100Z,95.10
2018-11-05T08:09:13.032Z,95.20
2018-11-05T08:14:10.092Z,95.30
2018-11-05T08:16:38.933Z,95.50
2018-11-05T08:19:08.051Z,95.00
2018-11-05T08:21:36.664Z,95.00
2018-11-05T08:24:05.353Z,95.50
2018-11-05T08:29:01.846Z,92.30
2018-11-05T08:31:30.204Z,91.30
2018-11-05T08:33:58.582Z,92.90
2018-11-05T08:36:26.877Z,91.80
2018-11-05T08:41:23.244Z,92.10
2018-11-05T08:43:51.549Z,91.30
2018-11-05T08:46:19.855Z,88.40
2018-11-05T08:48:48.138Z,84.90
2018-11-05T08:51:16.571Z,82.10
2018-11-05T08:53:44.703Z,81.10
2018-11-05T08:56:12.983Z,78.60
2018-11-05T08:58:41.294Z,77.60
2018-11-05T09:01:14.928Z,75.50
2018-11-05T09:03:43.193Z,74.60
2018-11-05T09:06:11.484Z,74.60
2018-11-05T09:08:39.905Z,69.20
2018-11-05T09:11:08.527Z,66.00
2018-11-05T09:13:36.446Z,66.50
2018-11-05T09:16:04.941Z,69.40
2018-11-05T09:18:33.264Z,62.60
2018-11-05T09:21:01.594Z,49.20
2018-11-05T09:23:29.925Z,46.60
2018-11-05T09:25:58.228Z,45.80
2018-11-05T09:28:26.532Z,46.80
2018-11-05T09:30:54.857Z,49.80
2018-11-05T09:33:23.160Z,49.30
2018-11-05T09:35:51.369Z,51.30
2018-11-05T09:38:19.648Z,53.00
2018-11-05T09:40:47.908Z,51.80
2018-11-05T09:43:16.061Z,50.90
2018-11-05T09:45:44.263Z,52.90
2018-11-05T09:48:12.556Z,53.10
2018-11-05T09:53:08.811Z,54.20
2018-11-05T09:55:37.247Z,53.30
2018-11-05T09:58:05.555Z,53.20
2018-11-05T10:00:33.932Z,52.50
2018-11-05T10:03:18.016Z,50.60
2018-11-05T10:05:46.315Z,51.50
2018-11-05T10:08:15.655Z,50.00
2018-11-05T10:10:43.848Z,47.40
2018-11-05T10:13:12.063Z,46.50
2018-11-05T10:15:40.302Z,44.20
2018-11-05T10:20:36.740Z,46.30
2018-11-05T10:23:05.012Z,44.70
2018-11-05T10:25:33.353Z,42.90
2018-11-05T10:28:06.073Z,44.60
2018-11-05T10:33:02.538Z,40.70
2018-11-05T10:35:36.143Z,42.00
2018-11-05T10:38:04.525Z,40.50
2018-11-05T10:40:32.710Z,40.40
2018-11-05T10:43:00.956Z,39.60
2018-11-05T10:45:29.203Z,40.20
2018-11-05T10:47:57.519Z,39.90
2018-11-05T10:50:25.861Z,38.40
2018-11-05T10:52:54.114Z,39.60
2018-11-05T10:55:22.517Z,37.70
2018-11-05T10:57:51.075Z,35.70
2018-11-05T11:00:26.826Z,36.20
2018-11-05T11:03:00.684Z,36.70
2018-11-05T11:05:29.881Z,36.00
2018-11-05T11:07:59.882Z,35.80
2018-11-05T11:10:28.879Z,36.30
2018-11-05T11:12:57.530Z,36.00
2018-11-05T11:15:25.907Z,35.50
2018-11-05T11:17:54.333Z,34.30
2018-11-05T11:20:22.726Z,35.50
2018-11-05T11:27:48.182Z,34.70
2018-11-05T11:32:45.995Z,36.10
2018-11-05T11:35:14.304Z,36.10
2018-11-05T11:37:42.640Z,36.20
2018-11-05T11:40:13.388Z,35.60
2018-11-05T11:42:42.695Z,36.20
2018-11-05T11:45:12.309Z,36.30
2018-11-05T11:47:40.680Z,35.70
2018-11-05T11:50:10.898Z,36.30
2018-11-05T11:52:39.366Z,35.80
2018-11-05T11:55:09.374Z,36.40
2018-11-05T11:57:37.858Z,35.90
2018-11-05T12:00:08.656Z,37.20
2018-11-05T12:02:37.000Z,36.10
2018-11-05T12:05:06.210Z,36.30
2018-11-05T12:07:34.582Z,35.40
2018-11-05T12:10:02.902Z,35.20
2018-11-05T12:12:31.356Z,35.40
2018-11-05T12:14:59.980Z,36.40
2018-11-05T12:17:28.109Z,35.40
2018-11-05T12:22:24.449Z,35.50
2018-11-05T12:24:52.760Z,35.70
2018-11-05T12:34:45.232Z,35.60
2018-11-05T12:37:13.634Z,35.50
2018-11-05T12:39:42.137Z,35.70
2018-11-05T12:42:10.642Z,33.90
2018-11-05T12:44:39.237Z,34.30
2018-11-05T12:47:07.502Z,35.10
2018-11-05T12:49:35.817Z,34.20
2018-11-05T12:52:04.109Z,33.90
2018-11-05T12:54:32.331Z,35.00
2018-11-05T12:57:00.659Z,35.50
2018-11-05T12:59:29.027Z,35.60
2018-11-05T13:01:59.155Z,35.80
2018-11-05T13:04:28.070Z,36.40
2018-11-05T13:06:56.627Z,35.70
2018-11-05T13:09:25.008Z,34.80
2018-11-05T13:11:53.343Z,34.90
2018-11-05T13:14:22.158Z,35.30
2018-11-05T13:16:50.536Z,36.00
2018-11-05T13:19:18.833Z,35.50
2018-11-05T13:24:15.199Z,34.90
2018-11-05T13:26:43.474Z,35.20
2018-11-05T13:29:11.747Z,35.20
2018-11-05T13:31:40.057Z,35.40
2018-11-05T13:34:08.494Z,35.50
2018-11-05T13:36:36.854Z,35.30
2018-11-05T13:39:07.443Z,35.70
2018-11-05T13:41:35.769Z,35.00
2018-11-05T13:44:04.231Z,34.50
2018-11-05T13:46:32.863Z,35.30
2018-11-05T13:49:01.401Z,35.50
2018-11-05T13:51:29.083Z,35.00
2018-11-05T13:53:57.387Z,35.40
2018-11-05T13:56:25.699Z,35.90
2018-11-05T13:58:53.951Z,35.10
2018-11-05T14:01:22.303Z,35.00
2018-11-05T14:03:50.610Z,34.90
2018-11-05T14:06:18.995Z,35.00
2018-11-05T14:08:47.341Z,35.10
2018-11-05T14:11:15.676Z,36.10
2018-11-05T14:13:43.995Z,35.00
2018-11-05T14:16:12.277Z,35.30
2018-11-05T14:18:40.579Z,35.60
2018-11-05T14:21:08.893Z,35.90
2018-11-05T14:28:34.554Z,35.50
2018-11-05T14:31:02.683Z,35.90
2018-11-05T14:33:30.976Z,36.30
2018-11-05T14:35:59.342Z,36.00
2018-11-05T14:38:27.755Z,36.50
2018-11-05T14:40:56.045Z,37.00
2018-11-05T14:45:52.383Z,36.30
2018-11-05T14:48:20.737Z,36.80
2018-11-05T14:50:49.208Z,36.50
2018-11-05T14:53:17.405Z,36.80
2018-11-05T14:55:45.727Z,36.40
2018-11-05T14:58:14.087Z,37.00
2018-11-05T15:00:42.487Z,37.60
2018-11-05T15:03:10.759Z,36.60
2018-11-05T15:05:39.082Z,37.20
2018-11-05T15:08:07.440Z,37.60
2018-11-05T15:10:35.744Z,37.30
2018-11-05T15:13:04.130Z,37.50
2018-11-05T15:15:32.479Z,36.90
2018-11-05T15:20:35.508Z,38.20
2018-11-05T15:23:03.813Z,37.80
2018-11-05T15:28:00.230Z,38.00
2018-11-05T15:32:56.495Z,38.00
2018-11-05T15:35:24.736Z,38.40
2018-11-05T15:37:53.034Z,38.90
2018-11-05T15:40:22.197Z,38.60
2018-11-05T15:42:50.560Z,38.50
2018-11-05T15:45:20.117Z,38.30
2018-11-05T15:47:48.475Z,38.70
2018-11-05T15:50:18.145Z,39.30
2018-11-05T15:52:46.815Z,39.40
2018-11-05T15:55:14.796Z,39.10
2018-11-05T15:57:43.125Z,38.40
2018-11-05T16:00:17.015Z,39.00
2018-11-05T16:02:46.659Z,38.20
2018-11-05T16:05:15.080Z,38.20
2018-11-05T16:07:43.686Z,38.20
2018-11-05T16:10:11.987Z,38.80
2018-11-05T16:12:40.346Z,39.40
2018-11-05T16:15:09.426Z,38.60
2018-11-05T16:17:38.165Z,39.20
2018-11-05T16:20:08.293Z,38.90
2018-11-05T16:22:36.591Z,38.80
2018-11-05T16:25:05.193Z,39.50
2018-11-05T16:27:33.572Z,39.60
2018-11-05T16:30:01.889Z,39.60
2018-11-05T16:32:30.201Z,40.30
2018-11-05T16:34:58.670Z,40.30
2018-11-05T16:37:33.752Z,40.80
2018-11-05T16:40:02.264Z,40.30
2018-11-05T16:42:30.709Z,41.00
2018-11-05T16:44:59.043Z,41.00
2018-11-05T16:47:27.308Z,41.40
2018-11-05T16:49:55.646Z,40.80
2018-11-05T16:52:23.926Z,41.10
2018-11-05T16:54:52.198Z,41.60
2018-11-05T16:57:20.500Z,41.50
2018-11-05T16:59:48.747Z,41.30
2018-11-05T17:02:17.718Z,40.70
2018-11-05T17:04:46.825Z,40.50
2018-11-05T17:07:15.326Z,40.10
2018-11-05T17:09:43.654Z,39.90
2018-11-05T17:12:12.002Z,39.50
2018-11-05T17:14:40.402Z,39.40
2018-11-05T17:17:08.685Z,40.00
2018-11-05T17:19:37.100Z,39.40
2018-11-05T17:22:05.432Z,40.00
2018-11-05T17:24:33.766Z,39.80
2018-11-05T17:27:02.053Z,40.00
2018-11-05T17:29:30.361Z,39.40
2018-11-05T17:31:58.711Z,39.90
2018-11-05T17:34:27.070Z,40.60
2018-11-05T17:36:55.425Z,40.00
2018-11-05T17:39:23.716Z,40.00
2018-11-05T17:44:19.912Z,40.30
2018-11-05T17:46:48.317Z,40.60
2018-11-05T17:49:16.550Z,40.40
2018-11-05T17:59:09.029Z,39.80
2018-11-05T18:01:37.214Z,40.10
2018-11-05T18:04:12.492Z,40.20
2018-11-05T18:06:40.778Z,40.20
2018-11-05T18:09:09.390Z,40.00
2018-11-05T18:11:37.728Z,39.80
2018-11-05T18:14:06.472Z,39.70
2018-11-05T18:16:34.877Z,40.00
2018-11-05T18:19:03.348Z,39.80
2018-11-05T18:21:31.611Z,39.80
2018-11-05T18:23:59.891Z,39.80
2018-11-05T18:26:28.219Z,40.10
2018-11-05T18:28:56.587Z,39.60
2018-11-05T18:31:24.846Z,39.70
2018-11-05T18:33:53.126Z,40.30
2018-11-05T18:36:21.488Z,39.70
2018-11-05T18:38:49.824Z,39.50
2018-11-05T18:53:38.385Z,40.20
2018-11-05T19:03:31.272Z,40.20
2018-11-05T19:05:59.321Z,40.90
2018-11-05T19:10:55.807Z,40.40
2018-11-05T19:20:48.141Z,41.00
2018-11-05T19:23:16.518Z,40.90
2018-11-05T19:28:13.029Z,42.00
2018-11-05T19:30:41.891Z,42.70
2018-11-05T19:33:10.085Z,43.40
2018-11-05T19:35:38.355Z,43.70
2018-11-05T19:45:30.903Z,45.90
2018-11-05T19:47:59.165Z,46.50
2018-11-05T19:52:55.496Z,47.10
2018-11-05T19:55:23.783Z,46.50
2018-11-05T19:57:52.904Z,46.90
2018-11-05T20:02:59.893Z,45.60
2018-11-05T20:05:28.347Z,46.20
2018-11-05T20:07:57.486Z,46.00
2018-11-05T20:10:25.882Z,47.40
2018-11-05T20:12:54.264Z,47.90
2018-11-05T20:15:22.499Z,47.50
2018-11-05T20:17:51.784Z,48.20
2018-11-05T20:20:21.420Z,49.10
2018-11-05T20:22:49.792Z,50.10
2018-11-05T20:25:18.283Z,51.00
2018-11-05T20:27:47.261Z,51.40
2018-11-05T20:30:17.857Z,53.20
2018-11-05T20:32:47.451Z,53.50
2018-11-05T20:35:15.776Z,53.70
2018-11-05T20:37:44.127Z,54.40
2018-11-05T20:40:14.600Z,53.90
2018-11-05T20:42:44.234Z,53.60
2018-11-05T20:45:12.782Z,56.80
2018-11-05T20:50:10.285Z,55.10
2018-11-05T20:52:39.127Z,53.10
2018-11-05T20:55:08.450Z,52.60
2018-11-05T20:57:36.999Z,51.30
2018-11-05T21:00:07.052Z,50.80
2018-11-05T21:02:35.403Z,52.10
2018-11-05T21:05:03.712Z,51.80
2018-11-05T21:07:32.137Z,52.00
2018-11-05T21:10:00.488Z,51.20
2018-11-05T21:12:28.883Z,50.90
2018-11-05T21:14:57.188Z,50.80
2018-11-05T21:17:25.559Z,52.20
2018-11-05T21:22:22.082Z,51.80
2018-11-05T21:24:50.451Z,52.40
2018-11-05T21:27:18.810Z,52.30
2018-11-05T21:29:47.126Z,52.40
2018-11-05T21:32:15.385Z,52.40
2018-11-05T21:34:43.803Z,52.60
2018-11-05T21:37:12.186Z,52.30
2018-11-05T21:39:40.488Z,53.00
2018-11-05T21:42:08.930Z,57.70
2018-11-05T21:44:37.192Z,53.60
2018-11-05T21:47:05.718Z,52.10
2018-11-05T21:49:34.289Z,51.40
2018-11-05T21:54:30.753Z,50.70
2018-11-05T21:56:59.059Z,51.20
2018-11-05T21:59:27.435Z,50.10
2018-11-05T22:01:57.019Z,48.70
2018-11-05T22:04:25.326Z,49.40
2018-11-05T22:06:53.858Z,48.20
2018-11-05T22:09:22.289Z,48.50
2018-11-05T22:11:50.774Z,49.00
2018-11-05T22:14:19.189Z,48.70
2018-11-05T22:16:47.664Z,47.80
2018-11-05T22:19:16.205Z,46.80
2018-11-05T22:21:44.680Z,47.10
2018-11-05T22:24:13.093Z,47.20
2018-11-05T22:26:41.510Z,46.20
2018-11-05T22:29:09.822Z,46.30
2018-11-05T22:31:38.106Z,47.00
2018-11-05T22:34:06.436Z,47.60
2018-11-05T22:36:34.811Z,46.50
2018-11-05T22:39:03.205Z,46.80
2018-11-05T22:41:31.588Z,46.90
2018-11-05T22:44:00.296Z,46.90
2018-11-05T22:46:28.647Z,53.20
2018-11-05T22:48:56.976Z,47.10
2018-11-05T22:53:53.441Z,48.10
2018-11-05T22:58:49.893Z,48.60
2018-11-05T23:01:23.911Z,49.00
2018-11-05T23:03:52.301Z,49.60
2018-11-05T23:06:20.652Z,49.30
2018-11-05T23:08:49.096Z,47.90
2018-11-05T23:11:17.488Z,47.40
2018-11-05T23:13:45.746Z,46.90
2018-11-05T23:16:14.040Z,46.40
2018-11-05T23:18:42.483Z,46.90
2018-11-05T23:21:10.811Z,46.20
2018-11-05T23:23:39.080Z,45.30
2018-11-05T23:26:07.432Z,44.10
2018-11-05T23:28:35.733Z,44.30
2018-11-05T23:31:04.076Z,44.20
2018-11-05T23:33:32.479Z,44.00
2018-11-05T23:36:00.679Z,44.00
2018-11-05T23:40:57.314Z,44.20
2018-11-05T23:43:25.627Z,43.60
2018-11-05T23:45:53.998Z,43.80
2018-11-05T23:48:22.369Z,43.90
2018-11-05T23:50:50.891Z,44.30
